Hauptseite
METAR-TAF:

METAR-TAF

Flughäfen :

London-Heathrow, England

Flughafen London Heathrow

Breite: 51-29N, Länge: 000-27W, Höhe: 24 m

Beobachtung

Neuester Wetterbericht von vor 12 Minuten, um 21:50 UTC
Wind 10 kt aus Ost
Temperatur 3°C
Luftfeuchtigkeit 75%
Luftdruck 1024 hPa
Sichtweite 10 km oder mehr
Durchbrochene Bewölkung in der Höhe von 2500 ft

METAR: EGLL 242150Z AUTO 08010KT 9999 BKN025 03/M01 Q1024

Zeit: 22:02 (22:02 UTC)

Prognose

Neuester Wetterbericht von vor 5 Stunden und 10 Minuten, um 16:52 UTC
Gültige Prognose vom 24 um 18 UTC bis 25 um 24 UTC
Wind 10 kt aus Ost
Sichtweite 10 km oder mehr
Leicht bewölkt in der Höhe von 2500 ft
Wahrscheinlichkeit 30% :
Zeitweise
vom 24 um 18 UTC bis 24 um 20 UTC
Wind 15 kt aus Ost, Böen bis zu 25 kt

TAF: EGLL 241652Z 2418/2524 08010KT 9999 FEW025 PROB30 TEMPO 2418/2420 08015G25KT

Wetterbeobachtungen und Prognosen von mehr als 4000 Flughäfen (METAR und TAF Bericht).

Die verfügbaren Stationen werden durch gelbe und rote Markierungen auf der Karte dargestellt.

Führen Sie die Maus auf sie, um den Namen der Station zu sehen.

Darauf klicken, um die Beobachtung von Wetterbeobachtungen und Prognosen zu sehen.

Um die Karte zu ändern : klicken Sie auf den grünen Tasten mit einem schwarzen Kreuz Zum Vergrößern, auf den grünen Button mit einem Gedankenstrich zu verkleinern, oder auf die grünen Pfeile für benachbarte Karten.


METAR-TAF: